sensor_id;sensor_type;location;lat;lon;timestamp;P1;durP1;ratioP1;P2;durP2;ratioP2
27925;SDS011;15267;47.838;12.128;2023-05-27T00:01:07;12.80;;;9.63;;
27925;SDS011;15267;47.838;12.128;2023-05-27T00:03:33;14.50;;;9.07;;
27925;SDS011;15267;47.838;12.128;2023-05-27T00:06:00;13.15;;;8.82;;
27925;SDS011;15267;47.838;12.128;2023-05-27T00:08:26;12.05;;;8.73;;
27925;SDS011;15267;47.838;12.128;2023-05-27T00:10:52;10.73;;;8.75;;
27925;SDS011;15267;47.838;12.128;2023-05-27T00:13:18;10.57;;;8.95;;
27925;SDS011;15267;47.838;12.128;2023-05-27T00:15:44;11.77;;;8.90;;
27925;SDS011;15267;47.838;12.128;2023-05-27T00:18:10;11.77;;;9.50;;
27925;SDS011;15267;47.838;12.128;2023-05-27T00:20:36;12.43;;;9.30;;
27925;SDS011;15267;47.838;12.128;2023-05-27T00:23:02;14.98;;;9.20;;
27925;SDS011;15267;47.838;12.128;2023-05-27T00:25:28;11.77;;;8.40;;
27925;SDS011;15267;47.838;12.128;2023-05-27T00:27:54;11.82;;;8.60;;
27925;SDS011;15267;47.838;12.128;2023-05-27T00:30:20;11.90;;;8.40;;
27925;SDS011;15267;47.838;12.128;2023-05-27T00:32:46;14.27;;;8.77;;
27925;SDS011;15267;47.838;12.128;2023-05-27T00:35:12;12.15;;;8.60;;
27925;SDS011;15267;47.838;12.128;2023-05-27T00:37:38;14.23;;;8.93;;
27925;SDS011;15267;47.838;12.128;2023-05-27T00:40:04;10.88;;;8.52;;
27925;SDS011;15267;47.838;12.128;2023-05-27T00:42:32;11.63;;;8.90;;
27925;SDS011;15267;47.838;12.128;2023-05-27T00:44:58;11.75;;;8.98;;
27925;SDS011;15267;47.838;12.128;2023-05-27T00:47:24;11.98;;;8.60;;
27925;SDS011;15267;47.838;12.128;2023-05-27T00:49:52;12.98;;;8.40;;
27925;SDS011;15267;47.838;12.128;2023-05-27T00:52:18;12.07;;;8.57;;
27925;SDS011;15267;47.838;12.128;2023-05-27T00:54:44;10.60;;;8.85;;
27925;SDS011;15267;47.838;12.128;2023-05-27T00:57:11;11.65;;;8.52;;
27925;SDS011;15267;47.838;12.128;2023-05-27T00:59:37;11.85;;;8.35;;
27925;SDS011;15267;47.838;12.128;2023-05-27T01:02:03;11.00;;;8.43;;
27925;SDS011;15267;47.838;12.128;2023-05-27T01:04:29;11.93;;;8.30;;
27925;SDS011;15267;47.838;12.128;2023-05-27T01:06:58;11.98;;;8.55;;
27925;SDS011;15267;47.838;12.128;2023-05-27T01:09:42;16.38;;;9.77;;
27925;SDS011;15267;47.838;12.128;2023-05-27T01:12:12;15.55;;;8.95;;
27925;SDS011;15267;47.838;12.128;2023-05-27T01:14:40;11.85;;;8.15;;
27925;SDS011;15267;47.838;12.128;2023-05-27T01:17:08;12.80;;;8.63;;
27925;SDS011;15267;47.838;12.128;2023-05-27T01:19:36;13.38;;;8.73;;
27925;SDS011;15267;47.838;12.128;2023-05-27T01:22:03;13.13;;;8.88;;
27925;SDS011;15267;47.838;12.128;2023-05-27T01:24:30;11.93;;;8.07;;
27925;SDS011;15267;47.838;12.128;2023-05-27T01:26:58;13.70;;;8.55;;
27925;SDS011;15267;47.838;12.128;2023-05-27T01:29:26;11.38;;;8.52;;
27925;SDS011;15267;47.838;12.128;2023-05-27T01:34:36;12.50;;;8.73;;
27925;SDS011;15267;47.838;12.128;2023-05-27T01:37:06;12.90;;;8.98;;
27925;SDS011;15267;47.838;12.128;2023-05-27T01:39:33;12.02;;;8.95;;
27925;SDS011;15267;47.838;12.128;2023-05-27T01:41:59;11.93;;;9.00;;
27925;SDS011;15267;47.838;12.128;2023-05-27T01:44:30;13.05;;;9.30;;
27925;SDS011;15267;47.838;12.128;2023-05-27T01:47:00;11.77;;;8.23;;
27925;SDS011;15267;47.838;12.128;2023-05-27T01:49:26;20.52;;;9.27;;
27925;SDS011;15267;47.838;12.128;2023-05-27T01:51:52;12.40;;;9.35;;
27925;SDS011;15267;47.838;12.128;2023-05-27T01:54:18;14.20;;;9.30;;
27925;SDS011;15267;47.838;12.128;2023-05-27T01:56:44;14.63;;;9.52;;
27925;SDS011;15267;47.838;12.128;2023-05-27T01:59:10;14.45;;;9.05;;
27925;SDS011;15267;47.838;12.128;2023-05-27T02:01:36;12.82;;;9.27;;
27925;SDS011;15267;47.838;12.128;2023-05-27T02:04:02;12.15;;;8.95;;
27925;SDS011;15267;47.838;12.128;2023-05-27T02:06:29;13.30;;;9.00;;
27925;SDS011;15267;47.838;12.128;2023-05-27T02:08:55;12.05;;;8.82;;
27925;SDS011;15267;47.838;12.128;2023-05-27T02:11:21;13.65;;;9.60;;
27925;SDS011;15267;47.838;12.128;2023-05-27T02:13:47;12.63;;;8.80;;
27925;SDS011;15267;47.838;12.128;2023-05-27T02:16:13;12.32;;;8.27;;
27925;SDS011;15267;47.838;12.128;2023-05-27T02:18:39;13.30;;;8.82;;
27925;SDS011;15267;47.838;12.128;2023-05-27T02:21:05;12.77;;;8.45;;
27925;SDS011;15267;47.838;12.128;2023-05-27T02:23:35;13.85;;;8.65;;
27925;SDS011;15267;47.838;12.128;2023-05-27T02:26:01;12.85;;;8.95;;
27925;SDS011;15267;47.838;12.128;2023-05-27T02:28:27;12.40;;;8.80;;
27925;SDS011;15267;47.838;12.128;2023-05-27T02:30:53;14.63;;;9.23;;
27925;SDS011;15267;47.838;12.128;2023-05-27T02:33:19;11.98;;;8.55;;
27925;SDS011;15267;47.838;12.128;2023-05-27T02:35:45;15.45;;;9.18;;
27925;SDS011;15267;47.838;12.128;2023-05-27T02:38:11;18.27;;;9.00;;
27925;SDS011;15267;47.838;12.128;2023-05-27T02:40:37;15.20;;;8.75;;
27925;SDS011;15267;47.838;12.128;2023-05-27T02:43:04;13.82;;;9.55;;
27925;SDS011;15267;47.838;12.128;2023-05-27T02:45:30;16.85;;;9.07;;
27925;SDS011;15267;47.838;12.128;2023-05-27T02:47:57;13.27;;;8.77;;
27925;SDS011;15267;47.838;12.128;2023-05-27T02:50:26;15.95;;;9.30;;
27925;SDS011;15267;47.838;12.128;2023-05-27T02:52:52;13.98;;;9.25;;
27925;SDS011;15267;47.838;12.128;2023-05-27T02:55:18;11.82;;;9.18;;
27925;SDS011;15267;47.838;12.128;2023-05-27T02:57:44;12.57;;;8.80;;
27925;SDS011;15267;47.838;12.128;2023-05-27T03:00:10;13.73;;;9.32;;
27925;SDS011;15267;47.838;12.128;2023-05-27T03:02:37;14.13;;;9.57;;
27925;SDS011;15267;47.838;12.128;2023-05-27T03:05:03;13.73;;;9.57;;
27925;SDS011;15267;47.838;12.128;2023-05-27T03:07:29;14.45;;;9.65;;
27925;SDS011;15267;47.838;12.128;2023-05-27T03:09:56;14.30;;;9.60;;
27925;SDS011;15267;47.838;12.128;2023-05-27T03:12:22;12.43;;;9.27;;
27925;SDS011;15267;47.838;12.128;2023-05-27T03:14:48;14.27;;;9.10;;
27925;SDS011;15267;47.838;12.128;2023-05-27T03:17:14;12.88;;;9.40;;
27925;SDS011;15267;47.838;12.128;2023-05-27T03:19:40;13.10;;;9.45;;
27925;SDS011;15267;47.838;12.128;2023-05-27T03:22:07;13.30;;;8.80;;
27925;SDS011;15267;47.838;12.128;2023-05-27T03:24:34;12.93;;;8.90;;
27925;SDS011;15267;47.838;12.128;2023-05-27T03:27:00;11.73;;;9.55;;
27925;SDS011;15267;47.838;12.128;2023-05-27T03:29:26;11.82;;;9.23;;
27925;SDS011;15267;47.838;12.128;2023-05-27T03:31:52;14.00;;;9.07;;
27925;SDS011;15267;47.838;12.128;2023-05-27T03:34:18;13.30;;;8.95;;
27925;SDS011;15267;47.838;12.128;2023-05-27T03:36:44;12.48;;;9.60;;
27925;SDS011;15267;47.838;12.128;2023-05-27T03:39:11;17.92;;;9.55;;
27925;SDS011;15267;47.838;12.128;2023-05-27T03:41:37;11.05;;;9.02;;
27925;SDS011;15267;47.838;12.128;2023-05-27T03:44:03;13.77;;;9.05;;
27925;SDS011;15267;47.838;12.128;2023-05-27T03:46:29;12.82;;;9.32;;
27925;SDS011;15267;47.838;12.128;2023-05-27T03:48:55;17.02;;;9.27;;
27925;SDS011;15267;47.838;12.128;2023-05-27T03:51:21;10.88;;;8.63;;
27925;SDS011;15267;47.838;12.128;2023-05-27T03:53:47;11.75;;;8.50;;
27925;SDS011;15267;47.838;12.128;2023-05-27T03:56:13;12.68;;;8.73;;
27925;SDS011;15267;47.838;12.128;2023-05-27T03:58:42;14.73;;;8.75;;
27925;SDS011;15267;47.838;12.128;2023-05-27T04:01:08;12.70;;;8.63;;
27925;SDS011;15267;47.838;12.128;2023-05-27T04:03:34;13.63;;;9.10;;
27925;SDS011;15267;47.838;12.128;2023-05-27T04:06:02;15.77;;;9.63;;
27925;SDS011;15267;47.838;12.128;2023-05-27T04:08:28;12.95;;;9.50;;
27925;SDS011;15267;47.838;12.128;2023-05-27T04:10:54;14.20;;;9.52;;
27925;SDS011;15267;47.838;12.128;2023-05-27T04:13:20;15.80;;;9.50;;
27925;SDS011;15267;47.838;12.128;2023-05-27T04:15:46;12.48;;;8.30;;
27925;SDS011;15267;47.838;12.128;2023-05-27T04:18:13;12.38;;;8.65;;
27925;SDS011;15267;47.838;12.128;2023-05-27T04:20:40;12.63;;;8.85;;
27925;SDS011;15267;47.838;12.128;2023-05-27T04:23:08;15.05;;;9.00;;
27925;SDS011;15267;47.838;12.128;2023-05-27T04:25:34;15.25;;;9.50;;
27925;SDS011;15267;47.838;12.128;2023-05-27T04:28:00;15.38;;;9.32;;
27925;SDS011;15267;47.838;12.128;2023-05-27T04:30:30;11.57;;;8.98;;
27925;SDS011;15267;47.838;12.128;2023-05-27T04:32:56;13.05;;;9.50;;
27925;SDS011;15267;47.838;12.128;2023-05-27T04:35:22;21.40;;;9.80;;
27925;SDS011;15267;47.838;12.128;2023-05-27T04:37:49;14.95;;;9.65;;
27925;SDS011;15267;47.838;12.128;2023-05-27T04:40:15;17.42;;;11.15;;
27925;SDS011;15267;47.838;12.128;2023-05-27T04:42:41;16.05;;;11.10;;
27925;SDS011;15267;47.838;12.128;2023-05-27T04:45:09;16.45;;;10.75;;
27925;SDS011;15267;47.838;12.128;2023-05-27T04:47:38;18.75;;;11.43;;
27925;SDS011;15267;47.838;12.128;2023-05-27T04:50:09;14.32;;;10.15;;
27925;SDS011;15267;47.838;12.128;2023-05-27T04:52:36;13.57;;;11.20;;
27925;SDS011;15267;47.838;12.128;2023-05-27T04:55:07;13.73;;;10.45;;
27925;SDS011;15267;47.838;12.128;2023-05-27T04:57:33;14.55;;;10.23;;
27925;SDS011;15267;47.838;12.128;2023-05-27T05:00:00;12.93;;;9.85;;
27925;SDS011;15267;47.838;12.128;2023-05-27T05:02:29;15.70;;;9.60;;
27925;SDS011;15267;47.838;12.128;2023-05-27T05:05:04;12.18;;;8.60;;
27925;SDS011;15267;47.838;12.128;2023-05-27T05:07:30;16.58;;;8.85;;
27925;SDS011;15267;47.838;12.128;2023-05-27T05:09:56;15.93;;;8.80;;
27925;SDS011;15267;47.838;12.128;2023-05-27T05:12:23;15.27;;;8.75;;
27925;SDS011;15267;47.838;12.128;2023-05-27T05:14:50;17.30;;;9.30;;
27925;SDS011;15267;47.838;12.128;2023-05-27T05:17:17;15.98;;;8.77;;
27925;SDS011;15267;47.838;12.128;2023-05-27T05:19:43;15.27;;;9.02;;
27925;SDS011;15267;47.838;12.128;2023-05-27T05:22:10;14.27;;;9.25;;
27925;SDS011;15267;47.838;12.128;2023-05-27T05:24:38;13.05;;;8.10;;
27925;SDS011;15267;47.838;12.128;2023-05-27T05:27:04;15.43;;;8.63;;
27925;SDS011;15267;47.838;12.128;2023-05-27T05:29:33;12.48;;;8.13;;
27925;SDS011;15267;47.838;12.128;2023-05-27T05:31:59;13.98;;;8.13;;
27925;SDS011;15267;47.838;12.128;2023-05-27T05:34:25;15.77;;;8.52;;
27925;SDS011;15267;47.838;12.128;2023-05-27T05:36:51;15.95;;;8.82;;
27925;SDS011;15267;47.838;12.128;2023-05-27T05:39:17;15.27;;;8.30;;
27925;SDS011;15267;47.838;12.128;2023-05-27T05:41:45;14.55;;;8.43;;
27925;SDS011;15267;47.838;12.128;2023-05-27T05:44:11;15.88;;;8.30;;
27925;SDS011;15267;47.838;12.128;2023-05-27T05:46:37;12.20;;;7.32;;
27925;SDS011;15267;47.838;12.128;2023-05-27T05:49:03;12.60;;;8.48;;
27925;SDS011;15267;47.838;12.128;2023-05-27T05:51:30;15.05;;;8.73;;
27925;SDS011;15267;47.838;12.128;2023-05-27T05:53:59;14.50;;;8.55;;
27925;SDS011;15267;47.838;12.128;2023-05-27T05:56:25;13.25;;;7.78;;
27925;SDS011;15267;47.838;12.128;2023-05-27T05:58:51;14.98;;;8.40;;
27925;SDS011;15267;47.838;12.128;2023-05-27T06:01:17;16.80;;;7.88;;
27925;SDS011;15267;47.838;12.128;2023-05-27T06:03:43;14.85;;;8.07;;
27925;SDS011;15267;47.838;12.128;2023-05-27T06:06:09;12.98;;;7.50;;
27925;SDS011;15267;47.838;12.128;2023-05-27T06:08:35;16.00;;;8.05;;
27925;SDS011;15267;47.838;12.128;2023-05-27T06:11:01;12.45;;;7.07;;
27925;SDS011;15267;47.838;12.128;2023-05-27T06:13:28;12.68;;;7.20;;
27925;SDS011;15267;47.838;12.128;2023-05-27T06:15:54;14.55;;;7.32;;
27925;SDS011;15267;47.838;12.128;2023-05-27T06:18:23;11.93;;;6.50;;
27925;SDS011;15267;47.838;12.128;2023-05-27T06:20:49;12.68;;;7.00;;
27925;SDS011;15267;47.838;12.128;2023-05-27T06:23:15;10.98;;;6.72;;
27925;SDS011;15267;47.838;12.128;2023-05-27T06:25:41;12.85;;;6.90;;
27925;SDS011;15267;47.838;12.128;2023-05-27T06:28:06;10.93;;;6.93;;
27925;SDS011;15267;47.838;12.128;2023-05-27T06:30:32;14.85;;;7.57;;
27925;SDS011;15267;47.838;12.128;2023-05-27T06:32:58;13.02;;;7.45;;
27925;SDS011;15267;47.838;12.128;2023-05-27T06:35:25;15.43;;;6.97;;
27925;SDS011;15267;47.838;12.128;2023-05-27T06:37:50;11.55;;;6.40;;
27925;SDS011;15267;47.838;12.128;2023-05-27T06:40:16;13.88;;;7.03;;
27925;SDS011;15267;47.838;12.128;2023-05-27T06:42:42;13.05;;;6.75;;
27925;SDS011;15267;47.838;12.128;2023-05-27T06:45:09;11.45;;;6.97;;
27925;SDS011;15267;47.838;12.128;2023-05-27T06:47:35;11.07;;;6.43;;
27925;SDS011;15267;47.838;12.128;2023-05-27T06:50:01;15.32;;;6.80;;
27925;SDS011;15267;47.838;12.128;2023-05-27T06:52:27;12.40;;;6.90;;
27925;SDS011;15267;47.838;12.128;2023-05-27T06:54:53;13.38;;;7.00;;
27925;SDS011;15267;47.838;12.128;2023-05-27T06:57:19;14.75;;;6.95;;
27925;SDS011;15267;47.838;12.128;2023-05-27T06:59:45;12.02;;;6.32;;
27925;SDS011;15267;47.838;12.128;2023-05-27T07:02:11;14.88;;;7.28;;
27925;SDS011;15267;47.838;12.128;2023-05-27T07:04:37;10.85;;;6.35;;
27925;SDS011;15267;47.838;12.128;2023-05-27T07:07:03;11.73;;;6.63;;
27925;SDS011;15267;47.838;12.128;2023-05-27T07:09:29;15.50;;;7.07;;
27925;SDS011;15267;47.838;12.128;2023-05-27T07:11:55;13.70;;;6.70;;
27925;SDS011;15267;47.838;12.128;2023-05-27T07:14:21;10.65;;;6.70;;
27925;SDS011;15267;47.838;12.128;2023-05-27T07:16:47;10.77;;;6.53;;
27925;SDS011;15267;47.838;12.128;2023-05-27T07:19:13;13.80;;;6.78;;
27925;SDS011;15267;47.838;12.128;2023-05-27T07:21:39;16.20;;;6.93;;
27925;SDS011;15267;47.838;12.128;2023-05-27T07:24:05;11.02;;;6.47;;
27925;SDS011;15267;47.838;12.128;2023-05-27T07:26:31;12.68;;;7.05;;
27925;SDS011;15267;47.838;12.128;2023-05-27T07:28:57;12.80;;;7.00;;
27925;SDS011;15267;47.838;12.128;2023-05-27T07:31:24;14.82;;;6.93;;
27925;SDS011;15267;47.838;12.128;2023-05-27T07:33:50;13.10;;;6.32;;
27925;SDS011;15267;47.838;12.128;2023-05-27T07:36:16;14.45;;;7.15;;
27925;SDS011;15267;47.838;12.128;2023-05-27T07:38:42;11.75;;;6.15;;
27925;SDS011;15267;47.838;12.128;2023-05-27T07:41:08;16.20;;;6.75;;
27925;SDS011;15267;47.838;12.128;2023-05-27T07:43:35;13.15;;;6.50;;
27925;SDS011;15267;47.838;12.128;2023-05-27T07:46:01;13.13;;;6.53;;
27925;SDS011;15267;47.838;12.128;2023-05-27T07:48:27;12.07;;;6.35;;
27925;SDS011;15267;47.838;12.128;2023-05-27T07:50:54;10.77;;;6.40;;
27925;SDS011;15267;47.838;12.128;2023-05-27T07:53:20;13.50;;;6.07;;
27925;SDS011;15267;47.838;12.128;2023-05-27T07:55:46;13.98;;;6.47;;
27925;SDS011;15267;47.838;12.128;2023-05-27T07:58:12;10.35;;;6.03;;
27925;SDS011;15267;47.838;12.128;2023-05-27T08:00:38;12.20;;;6.22;;
27925;SDS011;15267;47.838;12.128;2023-05-27T08:03:04;10.60;;;6.63;;
27925;SDS011;15267;47.838;12.128;2023-05-27T08:05:30;11.93;;;6.43;;
27925;SDS011;15267;47.838;12.128;2023-05-27T08:07:57;11.13;;;6.53;;
27925;SDS011;15267;47.838;12.128;2023-05-27T08:10:23;12.68;;;6.60;;
27925;SDS011;15267;47.838;12.128;2023-05-27T08:12:49;14.50;;;6.50;;
27925;SDS011;15267;47.838;12.128;2023-05-27T08:15:15;13.82;;;6.75;;
27925;SDS011;15267;47.838;12.128;2023-05-27T08:17:41;10.63;;;6.57;;
27925;SDS011;15267;47.838;12.128;2023-05-27T08:20:09;12.35;;;6.40;;
27925;SDS011;15267;47.838;12.128;2023-05-27T08:22:35;12.38;;;6.63;;
27925;SDS011;15267;47.838;12.128;2023-05-27T08:25:01;11.63;;;6.07;;
27925;SDS011;15267;47.838;12.128;2023-05-27T08:30:12;13.05;;;7.18;;
27925;SDS011;15267;47.838;12.128;2023-05-27T08:32:38;13.32;;;6.78;;
27925;SDS011;15267;47.838;12.128;2023-05-27T08:35:05;26.65;;;9.40;;
27925;SDS011;15267;47.838;12.128;2023-05-27T08:37:31;13.68;;;6.47;;
27925;SDS011;15267;47.838;12.128;2023-05-27T08:39:57;10.63;;;6.25;;
27925;SDS011;15267;47.838;12.128;2023-05-27T08:42:24;12.07;;;6.30;;
27925;SDS011;15267;47.838;12.128;2023-05-27T08:44:50;10.75;;;6.20;;
27925;SDS011;15267;47.838;12.128;2023-05-27T08:47:16;11.40;;;6.10;;
27925;SDS011;15267;47.838;12.128;2023-05-27T08:49:44;11.85;;;6.50;;
27925;SDS011;15267;47.838;12.128;2023-05-27T08:52:10;12.50;;;6.40;;
27925;SDS011;15267;47.838;12.128;2023-05-27T08:54:36;13.05;;;6.35;;
27925;SDS011;15267;47.838;12.128;2023-05-27T08:57:04;11.05;;;6.45;;
27925;SDS011;15267;47.838;12.128;2023-05-27T08:59:32;12.98;;;6.40;;
27925;SDS011;15267;47.838;12.128;2023-05-27T09:01:58;10.93;;;6.45;;
27925;SDS011;15267;47.838;12.128;2023-05-27T09:04:25;10.77;;;6.05;;
27925;SDS011;15267;47.838;12.128;2023-05-27T09:06:51;10.55;;;6.68;;
27925;SDS011;15267;47.838;12.128;2023-05-27T09:09:17;11.50;;;6.25;;
27925;SDS011;15267;47.838;12.128;2023-05-27T09:11:44;11.10;;;6.28;;
27925;SDS011;15267;47.838;12.128;2023-05-27T09:14:31;15.35;;;7.05;;
27925;SDS011;15267;47.838;12.128;2023-05-27T09:16:56;10.20;;;6.25;;
27925;SDS011;15267;47.838;12.128;2023-05-27T09:19:22;11.80;;;6.60;;
27925;SDS011;15267;47.838;12.128;2023-05-27T09:21:51;11.90;;;6.28;;
27925;SDS011;15267;47.838;12.128;2023-05-27T09:24:18;12.23;;;5.93;;
27925;SDS011;15267;47.838;12.128;2023-05-27T09:26:44;12.13;;;6.38;;
27925;SDS011;15267;47.838;12.128;2023-05-27T09:29:10;11.48;;;5.75;;
27925;SDS011;15267;47.838;12.128;2023-05-27T09:31:39;9.95;;;6.63;;
27925;SDS011;15267;47.838;12.128;2023-05-27T09:34:09;12.50;;;7.18;;
27925;SDS011;15267;47.838;12.128;2023-05-27T09:36:41;11.07;;;6.72;;
27925;SDS011;15267;47.838;12.128;2023-05-27T09:39:07;14.60;;;6.88;;
27925;SDS011;15267;47.838;12.128;2023-05-27T09:41:33;15.55;;;7.15;;
27925;SDS011;15267;47.838;12.128;2023-05-27T09:43:59;11.13;;;6.88;;
27925;SDS011;15267;47.838;12.128;2023-05-27T09:46:27;11.40;;;6.70;;
27925;SDS011;15267;47.838;12.128;2023-05-27T09:48:54;10.63;;;7.05;;
27925;SDS011;15267;47.838;12.128;2023-05-27T09:51:20;12.07;;;6.43;;
27925;SDS011;15267;47.838;12.128;2023-05-27T09:53:46;12.05;;;6.53;;
27925;SDS011;15267;47.838;12.128;2023-05-27T09:56:13;11.75;;;6.50;;
27925;SDS011;15267;47.838;12.128;2023-05-27T09:58:39;13.30;;;7.03;;
27925;SDS011;15267;47.838;12.128;2023-05-27T10:01:05;13.10;;;6.70;;
27925;SDS011;15267;47.838;12.128;2023-05-27T10:03:31;11.90;;;6.80;;
27925;SDS011;15267;47.838;12.128;2023-05-27T10:05:58;11.88;;;6.72;;
27925;SDS011;15267;47.838;12.128;2023-05-27T10:08:24;12.48;;;6.70;;
27925;SDS011;15267;47.838;12.128;2023-05-27T10:10:51;9.85;;;6.45;;
27925;SDS011;15267;47.838;12.128;2023-05-27T10:13:18;9.75;;;6.00;;
27925;SDS011;15267;47.838;12.128;2023-05-27T10:15:48;10.95;;;6.15;;
27925;SDS011;15267;47.838;12.128;2023-05-27T10:18:26;15.25;;;6.72;;
27925;SDS011;15267;47.838;12.128;2023-05-27T10:20:54;10.88;;;5.93;;
27925;SDS011;15267;47.838;12.128;2023-05-27T10:23:29;13.00;;;6.30;;
27925;SDS011;15267;47.838;12.128;2023-05-27T10:26:05;10.60;;;6.15;;
27925;SDS011;15267;47.838;12.128;2023-05-27T10:28:35;12.73;;;6.17;;
27925;SDS011;15267;47.838;12.128;2023-05-27T10:31:09;11.02;;;6.22;;
27925;SDS011;15267;47.838;12.128;2023-05-27T10:33:39;9.88;;;5.55;;
27925;SDS011;15267;47.838;12.128;2023-05-27T10:36:09;10.30;;;6.18;;
27925;SDS011;15267;47.838;12.128;2023-05-27T10:38:35;8.65;;;5.30;;
27925;SDS011;15267;47.838;12.128;2023-05-27T10:41:02;9.93;;;5.38;;
27925;SDS011;15267;47.838;12.128;2023-05-27T10:43:29;8.80;;;5.32;;
27925;SDS011;15267;47.838;12.128;2023-05-27T10:46:06;9.80;;;5.22;;
27925;SDS011;15267;47.838;12.128;2023-05-27T10:48:33;8.73;;;5.10;;
27925;SDS011;15267;47.838;12.128;2023-05-27T10:50:59;12.95;;;5.35;;
27925;SDS011;15267;47.838;12.128;2023-05-27T10:53:26;12.85;;;5.68;;
27925;SDS011;15267;47.838;12.128;2023-05-27T10:55:52;9.13;;;5.25;;
27925;SDS011;15267;47.838;12.128;2023-05-27T10:58:18;6.38;;;4.57;;
27925;SDS011;15267;47.838;12.128;2023-05-27T11:00:46;8.50;;;5.05;;
27925;SDS011;15267;47.838;12.128;2023-05-27T11:03:23;10.50;;;5.47;;
27925;SDS011;15267;47.838;12.128;2023-05-27T11:06:02;9.23;;;5.10;;
27925;SDS011;15267;47.838;12.128;2023-05-27T11:08:32;9.15;;;4.88;;
27925;SDS011;15267;47.838;12.128;2023-05-27T11:10:59;8.85;;;4.95;;
27925;SDS011;15267;47.838;12.128;2023-05-27T11:13:41;9.52;;;5.35;;
27925;SDS011;15267;47.838;12.128;2023-05-27T11:16:08;10.50;;;4.93;;
27925;SDS011;15267;47.838;12.128;2023-05-27T11:18:44;9.07;;;4.72;;
27925;SDS011;15267;47.838;12.128;2023-05-27T11:21:14;6.88;;;4.72;;
27925;SDS011;15267;47.838;12.128;2023-05-27T11:23:45;8.75;;;4.78;;
27925;SDS011;15267;47.838;12.128;2023-05-27T11:26:21;8.93;;;4.40;;
27925;SDS011;15267;47.838;12.128;2023-05-27T11:28:48;8.45;;;4.90;;
27925;SDS011;15267;47.838;12.128;2023-05-27T11:31:15;14.05;;;5.45;;
27925;SDS011;15267;47.838;12.128;2023-05-27T11:33:42;9.30;;;5.10;;
27925;SDS011;15267;47.838;12.128;2023-05-27T11:36:10;10.00;;;4.93;;
27925;SDS011;15267;47.838;12.128;2023-05-27T11:38:56;10.50;;;4.63;;
27925;SDS011;15267;47.838;12.128;2023-05-27T11:41:23;8.68;;;4.85;;
27925;SDS011;15267;47.838;12.128;2023-05-27T11:43:58;10.88;;;5.03;;
27925;SDS011;15267;47.838;12.128;2023-05-27T11:46:38;8.00;;;4.60;;
27925;SDS011;15267;47.838;12.128;2023-05-27T11:49:04;7.97;;;4.72;;
27925;SDS011;15267;47.838;12.128;2023-05-27T11:51:32;9.10;;;4.65;;
27925;SDS011;15267;47.838;12.128;2023-05-27T11:53:59;7.90;;;4.80;;
27925;SDS011;15267;47.838;12.128;2023-05-27T11:56:26;8.18;;;4.72;;
27925;SDS011;15267;47.838;12.128;2023-05-27T11:58:53;7.78;;;4.47;;
27925;SDS011;15267;47.838;12.128;2023-05-27T12:01:20;9.95;;;4.90;;
27925;SDS011;15267;47.838;12.128;2023-05-27T12:03:46;7.75;;;4.72;;
27925;SDS011;15267;47.838;12.128;2023-05-27T12:06:12;10.05;;;4.78;;
27925;SDS011;15267;47.838;12.128;2023-05-27T12:08:38;8.40;;;4.65;;
27925;SDS011;15267;47.838;12.128;2023-05-27T12:11:04;7.72;;;4.70;;
27925;SDS011;15267;47.838;12.128;2023-05-27T12:13:30;11.60;;;4.85;;
27925;SDS011;15267;47.838;12.128;2023-05-27T12:15:57;11.50;;;4.78;;
27925;SDS011;15267;47.838;12.128;2023-05-27T12:18:23;10.93;;;4.93;;
27925;SDS011;15267;47.838;12.128;2023-05-27T12:20:49;9.60;;;5.05;;
27925;SDS011;15267;47.838;12.128;2023-05-27T12:23:15;10.65;;;4.70;;
27925;SDS011;15267;47.838;12.128;2023-05-27T12:25:41;11.23;;;5.00;;
27925;SDS011;15267;47.838;12.128;2023-05-27T12:28:07;10.30;;;4.80;;
27925;SDS011;15267;47.838;12.128;2023-05-27T12:30:34;12.00;;;5.55;;
27925;SDS011;15267;47.838;12.128;2023-05-27T12:33:00;12.13;;;5.47;;
27925;SDS011;15267;47.838;12.128;2023-05-27T12:35:26;8.82;;;5.07;;
27925;SDS011;15267;47.838;12.128;2023-05-27T12:37:52;7.35;;;4.53;;
27925;SDS011;15267;47.838;12.128;2023-05-27T12:40:19;7.10;;;4.50;;
27925;SDS011;15267;47.838;12.128;2023-05-27T12:42:45;10.75;;;4.50;;
27925;SDS011;15267;47.838;12.128;2023-05-27T12:45:11;7.60;;;4.57;;
27925;SDS011;15267;47.838;12.128;2023-05-27T12:47:37;8.43;;;5.20;;
27925;SDS011;15267;47.838;12.128;2023-05-27T12:50:03;10.20;;;4.40;;
27925;SDS011;15267;47.838;12.128;2023-05-27T12:52:30;9.77;;;4.70;;
27925;SDS011;15267;47.838;12.128;2023-05-27T12:54:57;8.30;;;4.47;;
27925;SDS011;15267;47.838;12.128;2023-05-27T12:57:23;6.78;;;4.43;;
27925;SDS011;15267;47.838;12.128;2023-05-27T12:59:49;8.70;;;4.20;;
27925;SDS011;15267;47.838;12.128;2023-05-27T13:02:15;8.70;;;4.32;;
27925;SDS011;15267;47.838;12.128;2023-05-27T13:04:41;8.48;;;4.22;;
27925;SDS011;15267;47.838;12.128;2023-05-27T13:07:10;8.20;;;4.60;;
27925;SDS011;15267;47.838;12.128;2023-05-27T13:09:39;9.13;;;4.20;;
27925;SDS011;15267;47.838;12.128;2023-05-27T13:12:06;11.05;;;4.75;;
27925;SDS011;15267;47.838;12.128;2023-05-27T13:14:32;8.55;;;4.20;;
27925;SDS011;15267;47.838;12.128;2023-05-27T13:16:58;8.75;;;5.07;;
27925;SDS011;15267;47.838;12.128;2023-05-27T13:19:24;8.10;;;4.40;;
27925;SDS011;15267;47.838;12.128;2023-05-27T13:21:50;8.75;;;4.30;;
27925;SDS011;15267;47.838;12.128;2023-05-27T13:24:16;11.50;;;4.63;;
27925;SDS011;15267;47.838;12.128;2023-05-27T13:26:42;6.60;;;4.20;;
27925;SDS011;15267;47.838;12.128;2023-05-27T13:29:08;7.47;;;4.03;;
27925;SDS011;15267;47.838;12.128;2023-05-27T13:31:34;7.72;;;3.97;;
27925;SDS011;15267;47.838;12.128;2023-05-27T13:33:59;8.02;;;4.20;;
27925;SDS011;15267;47.838;12.128;2023-05-27T13:36:25;6.90;;;3.90;;
27925;SDS011;15267;47.838;12.128;2023-05-27T13:38:51;7.55;;;4.10;;
27925;SDS011;15267;47.838;12.128;2023-05-27T13:41:17;8.65;;;4.47;;
27925;SDS011;15267;47.838;12.128;2023-05-27T13:43:43;6.32;;;4.03;;
27925;SDS011;15267;47.838;12.128;2023-05-27T13:46:09;9.10;;;4.45;;
27925;SDS011;15267;47.838;12.128;2023-05-27T13:48:35;10.05;;;4.35;;
27925;SDS011;15267;47.838;12.128;2023-05-27T13:51:02;5.70;;;3.58;;
27925;SDS011;15267;47.838;12.128;2023-05-27T13:53:28;8.60;;;4.20;;
27925;SDS011;15267;47.838;12.128;2023-05-27T13:55:54;7.47;;;3.58;;
27925;SDS011;15267;47.838;12.128;2023-05-27T13:58:20;7.78;;;4.00;;
27925;SDS011;15267;47.838;12.128;2023-05-27T14:00:46;7.50;;;3.80;;
27925;SDS011;15267;47.838;12.128;2023-05-27T14:03:12;6.82;;;3.70;;
27925;SDS011;15267;47.838;12.128;2023-05-27T14:05:38;7.38;;;3.72;;
27925;SDS011;15267;47.838;12.128;2023-05-27T14:08:05;8.95;;;4.00;;
27925;SDS011;15267;47.838;12.128;2023-05-27T14:10:33;9.18;;;4.10;;
27925;SDS011;15267;47.838;12.128;2023-05-27T14:12:59;9.05;;;3.85;;
27925;SDS011;15267;47.838;12.128;2023-05-27T14:15:26;11.07;;;3.78;;
27925;SDS011;15267;47.838;12.128;2023-05-27T14:17:52;7.65;;;3.75;;
27925;SDS011;15267;47.838;12.128;2023-05-27T14:20:18;6.65;;;3.65;;
27925;SDS011;15267;47.838;12.128;2023-05-27T14:22:44;9.73;;;4.25;;
27925;SDS011;15267;47.838;12.128;2023-05-27T14:25:10;9.80;;;4.18;;
27925;SDS011;15267;47.838;12.128;2023-05-27T14:27:37;9.77;;;4.80;;